sensor_id;sensor_type;location;lat;lon;timestamp;pressure;altitude;pressure_sealevel;temperature;humidity
3260;BME280;22469;48.150;14.004;2022-12-16T00:01:16;96497.09;;;3.61;78.43
3260;BME280;22469;48.150;14.004;2022-12-16T00:03:53;96497.34;;;3.22;79.67
3260;BME280;22469;48.150;14.004;2022-12-16T00:06:24;96506.16;;;3.09;80.58
3260;BME280;22469;48.150;14.004;2022-12-16T00:08:52;96505.16;;;3.15;80.41
3260;BME280;22469;48.150;14.004;2022-12-16T00:11:20;96503.91;;;2.98;81.21
3260;BME280;22469;48.150;14.004;2022-12-16T00:13:48;96505.78;;;3.23;80.62
3260;BME280;22469;48.150;14.004;2022-12-16T00:16:17;96496.44;;;3.54;79.00
3260;BME280;22469;48.150;14.004;2022-12-16T00:18:46;96494.88;;;3.19;79.96
3260;BME280;22469;48.150;14.004;2022-12-16T00:21:14;96502.69;;;3.43;79.40
3260;BME280;22469;48.150;14.004;2022-12-16T00:23:41;96491.09;;;3.64;77.95
3260;BME280;22469;48.150;14.004;2022-12-16T00:26:08;96505.13;;;3.75;77.57
3260;BME280;22469;48.150;14.004;2022-12-16T00:28:38;96507.75;;;3.43;78.50
3260;BME280;22469;48.150;14.004;2022-12-16T00:31:06;96498.63;;;3.06;79.88
3260;BME280;22469;48.150;14.004;2022-12-16T00:33:33;96505.31;;;3.08;80.46
3260;BME280;22469;48.150;14.004;2022-12-16T00:36:01;96509.88;;;2.96;80.70
3260;BME280;22469;48.150;14.004;2022-12-16T00:38:28;96516.13;;;2.82;81.70
3260;BME280;22469;48.150;14.004;2022-12-16T00:40:55;96513.97;;;3.00;80.99
3260;BME280;22469;48.150;14.004;2022-12-16T00:43:22;96513.22;;;3.29;79.62
3260;BME280;22469;48.150;14.004;2022-12-16T00:45:49;96510.97;;;3.18;79.47
3260;BME280;22469;48.150;14.004;2022-12-16T00:48:17;96510.97;;;3.18;79.29
3260;BME280;22469;48.150;14.004;2022-12-16T00:50:50;96526.19;;;3.17;79.76
3260;BME280;22469;48.150;14.004;2022-12-16T00:53:23;96538.63;;;3.26;79.72
3260;BME280;22469;48.150;14.004;2022-12-16T00:55:59;96535.41;;;3.19;80.00
3260;BME280;22469;48.150;14.004;2022-12-16T00:58:27;96536.47;;;3.42;78.52
3260;BME280;22469;48.150;14.004;2022-12-16T01:00:54;96549.25;;;3.70;77.27
3260;BME280;22469;48.150;14.004;2022-12-16T01:03:21;96544.75;;;3.48;77.71
3260;BME280;22469;48.150;14.004;2022-12-16T01:05:49;96541.47;;;3.45;78.03
3260;BME280;22469;48.150;14.004;2022-12-16T01:08:16;96544.47;;;3.59;77.59
3260;BME280;22469;48.150;14.004;2022-12-16T01:10:52;96545.69;;;3.75;76.74
3260;BME280;22469;48.150;14.004;2022-12-16T01:13:23;96547.91;;;3.86;75.99
3260;BME280;22469;48.150;14.004;2022-12-16T01:15:51;96553.50;;;3.68;76.95
3260;BME280;22469;48.150;14.004;2022-12-16T01:18:18;96555.94;;;3.41;77.04
3260;BME280;22469;48.150;14.004;2022-12-16T01:20:45;96552.78;;;3.64;76.48
3260;BME280;22469;48.150;14.004;2022-12-16T01:23:12;96550.50;;;3.24;78.00
3260;BME280;22469;48.150;14.004;2022-12-16T01:25:39;96541.94;;;3.28;78.05
3260;BME280;22469;48.150;14.004;2022-12-16T01:28:06;96533.03;;;3.46;77.44
3260;BME280;22469;48.150;14.004;2022-12-16T01:30:34;96537.25;;;3.45;77.57
3260;BME280;22469;48.150;14.004;2022-12-16T01:33:01;96542.41;;;3.72;76.60
3260;BME280;22469;48.150;14.004;2022-12-16T01:35:28;96541.63;;;3.70;76.31
3260;BME280;22469;48.150;14.004;2022-12-16T01:38:15;96538.47;;;3.62;76.87
3260;BME280;22469;48.150;14.004;2022-12-16T01:40:42;96535.44;;;3.78;76.14
3260;BME280;22469;48.150;14.004;2022-12-16T01:43:13;96532.56;;;3.91;75.34
3260;BME280;22469;48.150;14.004;2022-12-16T01:45:48;96525.13;;;3.55;76.48
3260;BME280;22469;48.150;14.004;2022-12-16T01:51:07;96499.59;;;3.31;77.80
3260;BME280;22469;48.150;14.004;2022-12-16T01:53:39;96490.56;;;3.23;78.36
3260;BME280;22469;48.150;14.004;2022-12-16T01:56:09;96496.69;;;3.16;78.83
3260;BME280;22469;48.150;14.004;2022-12-16T01:58:40;96500.69;;;3.54;77.63
3260;BME280;22469;48.150;14.004;2022-12-16T02:01:08;96522.31;;;3.36;78.33
3260;BME280;22469;48.150;14.004;2022-12-16T02:03:36;96522.69;;;3.52;77.74
3260;BME280;22469;48.150;14.004;2022-12-16T02:06:06;96526.19;;;3.77;76.37
3260;BME280;22469;48.150;14.004;2022-12-16T02:08:34;96531.69;;;3.92;75.85
3260;BME280;22469;48.150;14.004;2022-12-16T02:11:10;96532.09;;;4.06;75.32
3260;BME280;22469;48.150;14.004;2022-12-16T02:16:56;96543.13;;;3.77;76.54
3260;BME280;22469;48.150;14.004;2022-12-16T02:28:43;96550.00;;;4.01;75.46
3260;BME280;22469;48.150;14.004;2022-12-16T02:31:43;96546.22;;;4.15;75.15
3260;BME280;22469;48.150;14.004;2022-12-16T02:37:08;96550.09;;;4.26;74.04
3260;BME280;22469;48.150;14.004;2022-12-16T02:39:52;96544.34;;;4.21;73.85
3260;BME280;22469;48.150;14.004;2022-12-16T02:42:33;96553.44;;;4.27;74.16
3260;BME280;22469;48.150;14.004;2022-12-16T02:45:18;96560.88;;;4.33;73.85
3260;BME280;22469;48.150;14.004;2022-12-16T02:47:49;96558.16;;;4.39;73.82
3260;BME280;22469;48.150;14.004;2022-12-16T02:52:54;96572.28;;;4.48;73.50
3260;BME280;22469;48.150;14.004;2022-12-16T02:55:32;96575.44;;;4.55;73.20
3260;BME280;22469;48.150;14.004;2022-12-16T02:58:20;96576.94;;;4.62;73.00
3260;BME280;22469;48.150;14.004;2022-12-16T03:03:42;96583.41;;;4.70;72.50
3260;BME280;22469;48.150;14.004;2022-12-16T03:06:22;96588.50;;;4.70;72.34
3260;BME280;22469;48.150;14.004;2022-12-16T03:08:53;96598.66;;;4.70;72.21
3260;BME280;22469;48.150;14.004;2022-12-16T03:11:25;96597.75;;;4.73;72.26
3260;BME280;22469;48.150;14.004;2022-12-16T03:13:54;96601.84;;;4.77;71.82
3260;BME280;22469;48.150;14.004;2022-12-16T03:16:26;96596.38;;;4.63;72.13
3260;BME280;22469;48.150;14.004;2022-12-16T03:19:02;96600.56;;;4.64;72.22
3260;BME280;22469;48.150;14.004;2022-12-16T03:22:02;96594.59;;;4.65;72.29
3260;BME280;22469;48.150;14.004;2022-12-16T03:24:34;96598.81;;;4.66;72.48
3260;BME280;22469;48.150;14.004;2022-12-16T03:30:01;96601.91;;;4.75;72.41
3260;BME280;22469;48.150;14.004;2022-12-16T03:33:21;96606.03;;;4.78;71.96
3260;BME280;22469;48.150;14.004;2022-12-16T03:35:48;96603.34;;;4.83;72.19
3260;BME280;22469;48.150;14.004;2022-12-16T03:38:19;96608.38;;;4.84;71.89
3260;BME280;22469;48.150;14.004;2022-12-16T03:40:47;96611.06;;;4.80;71.29
3260;BME280;22469;48.150;14.004;2022-12-16T03:43:15;96614.69;;;4.72;71.72
3260;BME280;22469;48.150;14.004;2022-12-16T03:45:44;96621.31;;;4.77;71.47
3260;BME280;22469;48.150;14.004;2022-12-16T03:48:13;96616.28;;;4.75;71.42
3260;BME280;22469;48.150;14.004;2022-12-16T03:50:42;96616.09;;;4.81;71.62
3260;BME280;22469;48.150;14.004;2022-12-16T03:53:09;96626.16;;;4.84;71.23
3260;BME280;22469;48.150;14.004;2022-12-16T03:55:36;96621.97;;;4.83;71.26
3260;BME280;22469;48.150;14.004;2022-12-16T03:58:03;96622.94;;;4.79;70.96
3260;BME280;22469;48.150;14.004;2022-12-16T04:00:30;96623.81;;;4.78;71.56
3260;BME280;22469;48.150;14.004;2022-12-16T04:02:57;96627.19;;;4.79;71.68
3260;BME280;22469;48.150;14.004;2022-12-16T04:05:24;96627.13;;;4.80;71.58
3260;BME280;22469;48.150;14.004;2022-12-16T04:07:52;96631.31;;;4.81;71.68
3260;BME280;22469;48.150;14.004;2022-12-16T04:10:25;96630.50;;;4.81;71.82
3260;BME280;22469;48.150;14.004;2022-12-16T04:13:11;96641.63;;;4.77;71.92
3260;BME280;22469;48.150;14.004;2022-12-16T04:15:57;96636.66;;;4.73;72.19
3260;BME280;22469;48.150;14.004;2022-12-16T04:18:44;96636.72;;;4.72;72.52
3260;BME280;22469;48.150;14.004;2022-12-16T04:21:31;96641.06;;;4.68;72.47
3260;BME280;22469;48.150;14.004;2022-12-16T04:24:18;96652.97;;;4.66;72.62
3260;BME280;22469;48.150;14.004;2022-12-16T04:26:46;96646.22;;;4.65;72.74
3260;BME280;22469;48.150;14.004;2022-12-16T04:29:40;96653.78;;;4.67;72.87
3260;BME280;22469;48.150;14.004;2022-12-16T04:32:26;96659.75;;;4.66;73.06
3260;BME280;22469;48.150;14.004;2022-12-16T04:34:53;96664.84;;;4.66;73.00
3260;BME280;22469;48.150;14.004;2022-12-16T04:37:20;96658.94;;;4.65;73.17
3260;BME280;22469;48.150;14.004;2022-12-16T04:40:06;96671.66;;;4.64;73.39
3260;BME280;22469;48.150;14.004;2022-12-16T04:42:52;96672.44;;;4.66;73.64
3260;BME280;22469;48.150;14.004;2022-12-16T04:45:38;96678.50;;;4.62;73.82
3260;BME280;22469;48.150;14.004;2022-12-16T04:48:23;96681.94;;;4.59;73.57
3260;BME280;22469;48.150;14.004;2022-12-16T04:51:09;96689.50;;;4.61;73.63
3260;BME280;22469;48.150;14.004;2022-12-16T04:53:54;96688.59;;;4.63;73.80
3260;BME280;22469;48.150;14.004;2022-12-16T04:56:40;96696.38;;;4.59;73.82
3260;BME280;22469;48.150;14.004;2022-12-16T04:59:25;96700.50;;;4.61;73.84
3260;BME280;22469;48.150;14.004;2022-12-16T05:02:11;96710.53;;;4.66;73.79
3260;BME280;22469;48.150;14.004;2022-12-16T05:04:57;96711.38;;;4.65;74.37
3260;BME280;22469;48.150;14.004;2022-12-16T05:07:42;96718.09;;;4.67;74.30
3260;BME280;22469;48.150;14.004;2022-12-16T05:10:28;96723.88;;;4.72;74.17
3260;BME280;22469;48.150;14.004;2022-12-16T05:13:13;96718.84;;;4.71;74.20
3260;BME280;22469;48.150;14.004;2022-12-16T05:16:00;96716.19;;;4.75;73.83
3260;BME280;22469;48.150;14.004;2022-12-16T05:18:50;96719.63;;;4.73;73.78
3260;BME280;22469;48.150;14.004;2022-12-16T05:21:35;96719.56;;;4.74;73.68
3260;BME280;22469;48.150;14.004;2022-12-16T05:24:21;96717.75;;;4.80;73.43
3260;BME280;22469;48.150;14.004;2022-12-16T05:27:06;96715.97;;;4.82;73.51
3260;BME280;22469;48.150;14.004;2022-12-16T05:29:52;96720.13;;;4.84;73.23
3260;BME280;22469;48.150;14.004;2022-12-16T05:32:38;96724.31;;;4.85;73.48
3260;BME280;22469;48.150;14.004;2022-12-16T05:35:23;96721.69;;;4.88;73.56
3260;BME280;22469;48.150;14.004;2022-12-16T05:38:08;96727.53;;;4.92;73.38
3260;BME280;22469;48.150;14.004;2022-12-16T05:40:54;96721.53;;;4.94;74.21
3260;BME280;22469;48.150;14.004;2022-12-16T05:43:41;96720.50;;;5.00;73.34
3260;BME280;22469;48.150;14.004;2022-12-16T05:46:26;96729.13;;;4.94;73.39
3260;BME280;22469;48.150;14.004;2022-12-16T05:49:12;96730.16;;;4.89;73.20
3260;BME280;22469;48.150;14.004;2022-12-16T05:51:58;96735.44;;;4.83;73.38
3260;BME280;22469;48.150;14.004;2022-12-16T05:54:43;96741.38;;;4.82;73.50
3260;BME280;22469;48.150;14.004;2022-12-16T05:57:28;96747.19;;;4.85;73.52
3260;BME280;22469;48.150;14.004;2022-12-16T06:00:14;96755.66;;;4.86;73.70
3260;BME280;22469;48.150;14.004;2022-12-16T06:03:00;96760.78;;;4.84;73.68
3260;BME280;22469;48.150;14.004;2022-12-16T06:05:46;96773.66;;;4.78;74.27
3260;BME280;22469;48.150;14.004;2022-12-16T06:08:31;96771.16;;;4.77;74.24
3260;BME280;22469;48.150;14.004;2022-12-16T06:11:17;96771.91;;;4.80;74.58
3260;BME280;22469;48.150;14.004;2022-12-16T06:14:02;96788.78;;;4.83;74.32
3260;BME280;22469;48.150;14.004;2022-12-16T06:16:49;96789.78;;;4.77;74.34
3260;BME280;22469;48.150;14.004;2022-12-16T06:19:35;96783.78;;;4.80;74.30
3260;BME280;22469;48.150;14.004;2022-12-16T06:22:20;96793.88;;;4.81;74.19
3260;BME280;22469;48.150;14.004;2022-12-16T06:25:26;96787.75;;;4.88;73.99
3260;BME280;22469;48.150;14.004;2022-12-16T06:28:11;96789.44;;;4.89;74.12
3260;BME280;22469;48.150;14.004;2022-12-16T06:30:57;96790.19;;;4.91;73.79
3260;BME280;22469;48.150;14.004;2022-12-16T06:33:42;96804.44;;;4.97;73.80
3260;BME280;22469;48.150;14.004;2022-12-16T06:36:28;96807.06;;;4.94;73.55
3260;BME280;22469;48.150;14.004;2022-12-16T06:39:13;96818.19;;;4.90;73.26
3260;BME280;22469;48.150;14.004;2022-12-16T06:41:59;96831.88;;;4.86;73.35
3260;BME280;22469;48.150;14.004;2022-12-16T06:44:44;96840.66;;;4.74;73.74
3260;BME280;22469;48.150;14.004;2022-12-16T06:47:29;96840.66;;;4.74;73.69
3260;BME280;22469;48.150;14.004;2022-12-16T06:50:15;96839.06;;;4.70;73.91
3260;BME280;22469;48.150;14.004;2022-12-16T06:53:01;96849.97;;;4.73;73.90
3260;BME280;22469;48.150;14.004;2022-12-16T06:55:46;96848.25;;;4.74;74.21
3260;BME280;22469;48.150;14.004;2022-12-16T06:58:31;96853.25;;;4.77;73.81
3260;BME280;22469;48.150;14.004;2022-12-16T07:01:17;96855.56;;;4.86;73.92
3260;BME280;22469;48.150;14.004;2022-12-16T07:04:03;96860.38;;;4.95;73.85
3260;BME280;22469;48.150;14.004;2022-12-16T07:06:48;96871.25;;;4.99;73.75
3260;BME280;22469;48.150;14.004;2022-12-16T07:09:33;96878.72;;;5.05;74.03
3260;BME280;22469;48.150;14.004;2022-12-16T07:12:19;96892.97;;;5.11;73.56
3260;BME280;22469;48.150;14.004;2022-12-16T07:15:05;96895.38;;;5.15;73.92
3260;BME280;22469;48.150;14.004;2022-12-16T07:17:51;96905.50;;;5.17;73.66
3260;BME280;22469;48.150;14.004;2022-12-16T07:20:36;96907.91;;;5.21;73.83
3260;BME280;22469;48.150;14.004;2022-12-16T07:23:22;96915.53;;;5.21;73.42
3260;BME280;22469;48.150;14.004;2022-12-16T07:26:07;96923.88;;;5.27;73.47
3260;BME280;22469;48.150;14.004;2022-12-16T07:28:53;96934.88;;;5.27;73.50
3260;BME280;22469;48.150;14.004;2022-12-16T07:31:39;96940.06;;;5.22;73.01
3260;BME280;22469;48.150;14.004;2022-12-16T07:34:24;96932.28;;;5.29;72.87
3260;BME280;22469;48.150;14.004;2022-12-16T07:37:15;96925.47;;;5.29;72.96
3260;BME280;22469;48.150;14.004;2022-12-16T07:40:01;96934.81;;;5.29;72.45
3260;BME280;22469;48.150;14.004;2022-12-16T07:42:48;96948.44;;;5.26;72.30
3260;BME280;22469;48.150;14.004;2022-12-16T07:45:33;96963.69;;;5.26;72.55
3260;BME280;22469;48.150;14.004;2022-12-16T07:48:20;96961.06;;;5.29;72.77
3260;BME280;22469;48.150;14.004;2022-12-16T07:51:06;96950.81;;;5.32;72.81
3260;BME280;22469;48.150;14.004;2022-12-16T07:53:51;96969.41;;;5.34;72.66
3260;BME280;22469;48.150;14.004;2022-12-16T07:56:36;96963.44;;;5.35;72.57
3260;BME280;22469;48.150;14.004;2022-12-16T07:59:22;96961.03;;;5.31;71.94
3260;BME280;22469;48.150;14.004;2022-12-16T08:02:09;96978.88;;;5.29;72.01
3260;BME280;22469;48.150;14.004;2022-12-16T08:04:55;96982.13;;;5.34;71.92
3260;BME280;22469;48.150;14.004;2022-12-16T08:07:41;96988.03;;;5.35;72.41
3260;BME280;22469;48.150;14.004;2022-12-16T08:10:27;96988.03;;;5.35;72.46
3260;BME280;22469;48.150;14.004;2022-12-16T08:13:13;96985.53;;;5.33;72.12
3260;BME280;22469;48.150;14.004;2022-12-16T08:16:00;96988.88;;;5.35;71.87
3260;BME280;22469;48.150;14.004;2022-12-16T08:18:45;96994.78;;;5.36;71.98
3260;BME280;22469;48.150;14.004;2022-12-16T08:21:36;96999.09;;;5.34;71.74
3260;BME280;22469;48.150;14.004;2022-12-16T08:24:22;97016.03;;;5.33;71.90
3260;BME280;22469;48.150;14.004;2022-12-16T08:27:17;97022.00;;;5.32;72.30
3260;BME280;22469;48.150;14.004;2022-12-16T08:30:02;97018.69;;;5.30;72.37
3260;BME280;22469;48.150;14.004;2022-12-16T08:32:48;97023.78;;;5.30;72.51
3260;BME280;22469;48.150;14.004;2022-12-16T08:35:44;97026.19;;;5.33;72.51
3260;BME280;22469;48.150;14.004;2022-12-16T08:38:30;97027.81;;;5.37;72.17
3260;BME280;22469;48.150;14.004;2022-12-16T08:41:16;97039.63;;;5.38;72.37
3260;BME280;22469;48.150;14.004;2022-12-16T08:44:02;97043.00;;;5.39;72.46
3260;BME280;22469;48.150;14.004;2022-12-16T08:46:47;97048.16;;;5.37;72.12
3260;BME280;22469;48.150;14.004;2022-12-16T08:49:34;97062.59;;;5.35;72.00
3260;BME280;22469;48.150;14.004;2022-12-16T08:52:27;97055.88;;;5.33;72.38
3260;BME280;22469;48.150;14.004;2022-12-16T08:55:13;97060.13;;;5.32;72.74
3260;BME280;22469;48.150;14.004;2022-12-16T08:57:58;97068.66;;;5.31;72.26
3260;BME280;22469;48.150;14.004;2022-12-16T09:00:44;97073.72;;;5.31;72.68
3260;BME280;22469;48.150;14.004;2022-12-16T09:03:34;97079.78;;;5.27;73.17
3260;BME280;22469;48.150;14.004;2022-12-16T09:06:21;97084.03;;;5.27;73.06
3260;BME280;22469;48.150;14.004;2022-12-16T09:09:08;97084.84;;;5.27;73.58
3260;BME280;22469;48.150;14.004;2022-12-16T09:11:54;97095.97;;;5.23;73.48
3260;BME280;22469;48.150;14.004;2022-12-16T09:14:40;97093.63;;;5.15;73.83
3260;BME280;22469;48.150;14.004;2022-12-16T09:17:25;97102.94;;;5.16;73.79
3260;BME280;22469;48.150;14.004;2022-12-16T09:20:10;97096.97;;;5.17;73.98
3260;BME280;22469;48.150;14.004;2022-12-16T09:23:01;97103.63;;;5.21;73.73
3260;BME280;22469;48.150;14.004;2022-12-16T09:25:47;97105.25;;;5.24;74.01
3260;BME280;22469;48.150;14.004;2022-12-16T09:28:33;97102.69;;;5.26;73.92
3260;BME280;22469;48.150;14.004;2022-12-16T09:31:20;97106.91;;;5.27;73.82
3260;BME280;22469;48.150;14.004;2022-12-16T09:34:05;97104.38;;;5.25;73.79
3260;BME280;22469;48.150;14.004;2022-12-16T09:36:51;97104.38;;;5.27;74.10
3260;BME280;22469;48.150;14.004;2022-12-16T09:39:36;97109.25;;;5.33;74.00
3260;BME280;22469;48.150;14.004;2022-12-16T09:42:29;97105.66;;;5.41;74.13
3260;BME280;22469;48.150;14.004;2022-12-16T09:49:04;97113.00;;;5.52;73.64
3260;BME280;22469;48.150;14.004;2022-12-16T09:51:59;97123.03;;;5.58;73.29
3260;BME280;22469;48.150;14.004;2022-12-16T09:54:57;97127.06;;;5.65;73.21
3260;BME280;22469;48.150;14.004;2022-12-16T09:57:44;97122.91;;;5.63;71.75
3260;BME280;22469;48.150;14.004;2022-12-16T10:00:30;97119.44;;;5.65;71.66
3260;BME280;22469;48.150;14.004;2022-12-16T10:03:37;97115.91;;;5.71;71.64
3260;BME280;22469;48.150;14.004;2022-12-16T10:13:15;97142.59;;;5.87;71.82
3260;BME280;22469;48.150;14.004;2022-12-16T10:22:44;97142.22;;;6.01;71.13
3260;BME280;22469;48.150;14.004;2022-12-16T10:25:50;97143.03;;;6.03;70.85
3260;BME280;22469;48.150;14.004;2022-12-16T10:31:37;97155.53;;;6.11;70.67
3260;BME280;22469;48.150;14.004;2022-12-16T10:34:30;97158.81;;;6.16;71.04
3260;BME280;22469;48.150;14.004;2022-12-16T10:37:33;97155.28;;;6.20;71.01
3260;BME280;22469;48.150;14.004;2022-12-16T10:40:26;97156.94;;;6.21;71.58
3260;BME280;22469;48.150;14.004;2022-12-16T10:43:19;97159.56;;;6.20;70.89
3260;BME280;22469;48.150;14.004;2022-12-16T10:46:16;97164.66;;;6.20;70.56
3260;BME280;22469;48.150;14.004;2022-12-16T10:49:04;97154.50;;;6.18;70.69
3260;BME280;22469;48.150;14.004;2022-12-16T10:51:50;97155.28;;;6.20;70.57
3260;BME280;22469;48.150;14.004;2022-12-16T10:55:24;97157.03;;;6.18;70.22
3260;BME280;22469;48.150;14.004;2022-12-16T10:58:38;97149.47;;;6.16;70.26
3260;BME280;22469;48.150;14.004;2022-12-16T11:01:32;97153.75;;;6.14;70.16
3260;BME280;22469;48.150;14.004;2022-12-16T11:04:33;97148.72;;;6.13;69.84
3260;BME280;22469;48.150;14.004;2022-12-16T11:10:36;97154.66;;;6.12;70.04
3260;BME280;22469;48.150;14.004;2022-12-16T11:13:34;97157.13;;;6.15;70.13
3260;BME280;22469;48.150;14.004;2022-12-16T11:16:23;97164.00;;;6.11;69.97
3260;BME280;22469;48.150;14.004;2022-12-16T11:19:23;97158.38;;;6.00;70.57
3260;BME280;22469;48.150;14.004;2022-12-16T11:22:22;97163.41;;;6.03;70.38
3260;BME280;22469;48.150;14.004;2022-12-16T11:28:12;97155.94;;;5.97;70.92
3260;BME280;22469;48.150;14.004;2022-12-16T11:31:02;97149.19;;;5.94;70.88
3260;BME280;22469;48.150;14.004;2022-12-16T11:33:52;97151.63;;;5.99;70.85
3260;BME280;22469;48.150;14.004;2022-12-16T11:36:40;97153.44;;;5.96;71.28
3260;BME280;22469;48.150;14.004;2022-12-16T11:39:29;97154.34;;;5.93;70.85
3260;BME280;22469;48.150;14.004;2022-12-16T11:42:20;97154.56;;;5.84;71.37
3260;BME280;22469;48.150;14.004;2022-12-16T11:45:20;97164.81;;;5.81;71.77
3260;BME280;22469;48.150;14.004;2022-12-16T11:48:35;97169.13;;;5.79;71.86
3260;BME280;22469;48.150;14.004;2022-12-16T11:51:28;97159.69;;;5.82;71.31
3260;BME280;22469;48.150;14.004;2022-12-16T11:54:28;97169.75;;;5.87;71.73
3260;BME280;22469;48.150;14.004;2022-12-16T11:57:38;97175.63;;;5.89;71.78
3260;BME280;22469;48.150;14.004;2022-12-16T12:00:28;97167.06;;;5.93;71.62
3260;BME280;22469;48.150;14.004;2022-12-16T12:03:21;97170.41;;;5.95;71.85
3260;BME280;22469;48.150;14.004;2022-12-16T12:09:17;97182.28;;;5.94;71.76
3260;BME280;22469;48.150;14.004;2022-12-16T12:15:43;97176.19;;;6.02;71.34
3260;BME280;22469;48.150;14.004;2022-12-16T12:31:23;97187.59;;;5.85;71.89
3260;BME280;22469;48.150;14.004;2022-12-16T12:38:23;97193.97;;;5.69;72.51
3260;BME280;22469;48.150;14.004;2022-12-16T12:41:27;97199.94;;;5.68;72.16
3260;BME280;22469;48.150;14.004;2022-12-16T12:51:06;97218.44;;;5.73;72.29
3260;BME280;22469;48.150;14.004;2022-12-16T12:57:42;97234.44;;;5.78;72.56
3260;BME280;22469;48.150;14.004;2022-12-16T13:00:35;97227.50;;;5.83;72.63
3260;BME280;22469;48.150;14.004;2022-12-16T13:06:19;97235.72;;;5.94;72.51
3260;BME280;22469;48.150;14.004;2022-12-16T13:15:50;97243.41;;;5.93;71.79
3260;BME280;22469;48.150;14.004;2022-12-16T13:18:28;97256.13;;;5.93;72.32
3260;BME280;22469;48.150;14.004;2022-12-16T13:27:14;97260.53;;;5.86;72.15
3260;BME280;22469;48.150;14.004;2022-12-16T13:30:19;97261.28;;;5.90;72.07
3260;BME280;22469;48.150;14.004;2022-12-16T13:33:24;97264.63;;;5.92;72.06
3260;BME280;22469;48.150;14.004;2022-12-16T13:36:14;97269.72;;;5.92;72.29
3260;BME280;22469;48.150;14.004;2022-12-16T13:39:25;97277.34;;;5.92;72.47
3260;BME280;22469;48.150;14.004;2022-12-16T13:42:32;97275.63;;;5.94;72.40
3260;BME280;22469;48.150;14.004;2022-12-16T13:48:37;97275.66;;;5.92;72.21
3260;BME280;22469;48.150;14.004;2022-12-16T13:54:38;97282.50;;;5.89;72.01
3260;BME280;22469;48.150;14.004;2022-12-16T13:57:29;97287.69;;;5.84;72.24
3260;BME280;22469;48.150;14.004;2022-12-16T14:00:23;97288.66;;;5.80;72.63
3260;BME280;22469;48.150;14.004;2022-12-16T14:03:37;97292.88;;;5.81;72.73
3260;BME280;22469;48.150;14.004;2022-12-16T14:06:27;97308.19;;;5.80;72.82
3260;BME280;22469;48.150;14.004;2022-12-16T14:09:35;97309.00;;;5.82;72.66
3260;BME280;22469;48.150;14.004;2022-12-16T14:22:00;97317.72;;;5.72;72.36
3260;BME280;22469;48.150;14.004;2022-12-16T14:25:06;97320.34;;;5.67;72.24
3260;BME280;22469;48.150;14.004;2022-12-16T14:27:57;97320.34;;;5.67;72.45
3260;BME280;22469;48.150;14.004;2022-12-16T14:30:43;97330.59;;;5.64;72.73
3260;BME280;22469;48.150;14.004;2022-12-16T14:33:29;97329.00;;;5.60;72.49
3260;BME280;22469;48.150;14.004;2022-12-16T14:36:24;97331.53;;;5.61;72.57
3260;BME280;22469;48.150;14.004;2022-12-16T14:39:22;97339.16;;;5.61;72.87
3260;BME280;22469;48.150;14.004;2022-12-16T14:42:20;97339.97;;;5.62;72.57
3260;BME280;22469;48.150;14.004;2022-12-16T14:48:31;97355.44;;;5.53;73.17
3260;BME280;22469;48.150;14.004;2022-12-16T14:51:28;97362.25;;;5.52;72.93
3260;BME280;22469;48.150;14.004;2022-12-16T14:54:38;97368.94;;;5.56;73.20
3260;BME280;22469;48.150;14.004;2022-12-16T15:00:18;97378.44;;;5.48;73.32
3260;BME280;22469;48.150;14.004;2022-12-16T15:06:28;97380.31;;;5.40;73.52
3260;BME280;22469;48.150;14.004;2022-12-16T15:09:23;97386.16;;;5.43;73.37
3260;BME280;22469;48.150;14.004;2022-12-16T15:12:14;97393.94;;;5.37;74.08
3260;BME280;22469;48.150;14.004;2022-12-16T15:15:16;97399.91;;;5.35;73.90
3260;BME280;22469;48.150;14.004;2022-12-16T15:18:04;97398.50;;;5.21;74.26
3260;BME280;22469;48.150;14.004;2022-12-16T15:20:53;97402.97;;;5.10;74.81
3260;BME280;22469;48.150;14.004;2022-12-16T15:23:40;97413.97;;;5.09;74.87
3260;BME280;22469;48.150;14.004;2022-12-16T15:26:33;97413.91;;;5.12;74.69
3260;BME280;22469;48.150;14.004;2022-12-16T15:29:36;97424.91;;;5.14;74.79
3260;BME280;22469;48.150;14.004;2022-12-16T15:35:32;97428.38;;;5.10;74.62
3260;BME280;22469;48.150;14.004;2022-12-16T15:38:39;97431.84;;;5.06;74.73
3260;BME280;22469;48.150;14.004;2022-12-16T15:41:33;97431.81;;;5.08;74.97
3260;BME280;22469;48.150;14.004;2022-12-16T15:44:24;97442.19;;;4.97;74.99
3260;BME280;22469;48.150;14.004;2022-12-16T15:50:25;97444.28;;;4.75;76.26
3260;BME280;22469;48.150;14.004;2022-12-16T15:53:35;97462.03;;;4.77;76.18
3260;BME280;22469;48.150;14.004;2022-12-16T15:56:39;97463.03;;;4.68;76.35
3260;BME280;22469;48.150;14.004;2022-12-16T15:59:32;97463.78;;;4.73;76.44
3260;BME280;22469;48.150;14.004;2022-12-16T16:02:25;97473.03;;;4.79;75.96
3260;BME280;22469;48.150;14.004;2022-12-16T16:05:23;97466.09;;;4.85;75.80
3260;BME280;22469;48.150;14.004;2022-12-16T16:08:10;97481.28;;;4.90;75.60
3260;BME280;22469;48.150;14.004;2022-12-16T16:10:56;97484.72;;;4.87;75.69
3260;BME280;22469;48.150;14.004;2022-12-16T16:13:41;97484.63;;;4.92;75.49
3260;BME280;22469;48.150;14.004;2022-12-16T16:16:34;97488.91;;;4.90;75.49
3260;BME280;22469;48.150;14.004;2022-12-16T16:19:23;97481.44;;;4.82;75.36
3260;BME280;22469;48.150;14.004;2022-12-16T16:22:15;97492.72;;;4.64;76.01
3260;BME280;22469;48.150;14.004;2022-12-16T16:25:02;97501.78;;;4.26;76.63
3260;BME280;22469;48.150;14.004;2022-12-16T16:27:48;97500.03;;;3.71;77.63
3260;BME280;22469;48.150;14.004;2022-12-16T16:30:34;97507.09;;;4.11;75.86
3260;BME280;22469;48.150;14.004;2022-12-16T16:33:20;97512.41;;;3.94;75.96
3260;BME280;22469;48.150;14.004;2022-12-16T16:36:13;97516.00;;;3.78;76.75
3260;BME280;22469;48.150;14.004;2022-12-16T16:39:16;97526.31;;;3.64;77.01
3260;BME280;22469;48.150;14.004;2022-12-16T16:42:02;97526.13;;;3.81;76.17
3260;BME280;22469;48.150;14.004;2022-12-16T16:44:47;97523.34;;;3.96;75.85
3260;BME280;22469;48.150;14.004;2022-12-16T16:47:33;97529.13;;;4.09;75.03
3260;BME280;22469;48.150;14.004;2022-12-16T16:50:18;97532.81;;;3.85;75.11
3260;BME280;22469;48.150;14.004;2022-12-16T16:53:04;97538.72;;;3.87;75.39
3260;BME280;22469;48.150;14.004;2022-12-16T16:55:53;97541.28;;;3.84;75.36
3260;BME280;22469;48.150;14.004;2022-12-16T16:58:45;97538.75;;;3.83;75.04